createdAt,value
2023-01-29T00:04:44.712Z,12.03
2023-01-29T00:10:04.047Z,12.03
2023-01-29T00:15:23.765Z,12.02
2023-01-29T00:20:43.128Z,12.02
2023-01-29T00:26:02.528Z,12.02
2023-01-29T00:31:21.707Z,12.02
2023-01-29T00:36:40.985Z,12.02
2023-01-29T00:41:59.848Z,12.03
2023-01-29T00:47:18.793Z,12.02
2023-01-29T00:52:37.849Z,12.02
2023-01-29T00:57:57.384Z,12.02
2023-01-29T01:03:17.605Z,12.02
2023-01-29T01:08:37.170Z,12.02
2023-01-29T01:13:56.004Z,12.01
2023-01-29T01:20:30.164Z,12.02
2023-01-29T01:24:36.092Z,12.02
2023-01-29T01:29:55.033Z,12.02
2023-01-29T01:35:14.434Z,12.02
2023-01-29T01:40:34.190Z,12.01
2023-01-29T01:45:53.085Z,12.01
2023-01-29T01:51:12.409Z,12.02
2023-01-29T01:56:31.586Z,12.01
2023-01-29T02:01:51.016Z,12.02
2023-01-29T02:07:09.885Z,12.01
2023-01-29T02:12:28.863Z,12.01
2023-01-29T02:17:47.902Z,12.01
2023-01-29T02:23:07.541Z,12.01
2023-01-29T02:28:27.177Z,12.01
2023-01-29T02:33:46.628Z,12.02
2023-01-29T02:39:06.290Z,12.01
2023-01-29T02:44:25.265Z,12.01
2023-01-29T02:49:44.166Z,12
2023-01-29T02:55:03.354Z,12.01
2023-01-29T03:00:22.666Z,12.01
2023-01-29T03:05:42.113Z,12.01
2023-01-29T03:10:59.828Z,12
2023-01-29T03:16:18.840Z,12
2023-01-29T03:21:38.291Z,12
2023-01-29T03:26:57.647Z,12
2023-01-29T03:32:16.915Z,12
2023-01-29T03:37:35.728Z,12.01
2023-01-29T03:42:55.217Z,12
2023-01-29T03:48:14.399Z,12
2023-01-29T03:53:33.762Z,12
2023-01-29T03:58:52.668Z,12
2023-01-29T04:05:26.871Z,12
2023-01-29T04:09:32.728Z,12
2023-01-29T04:14:52.685Z,12
2023-01-29T04:20:12.168Z,12
2023-01-29T04:25:31.776Z,12
2023-01-29T04:30:51.334Z,12
2023-01-29T04:36:10.318Z,12
2023-01-29T04:41:29.541Z,12
2023-01-29T04:46:48.655Z,12
2023-01-29T04:52:07.716Z,12
2023-01-29T04:57:26.745Z,11.99
2023-01-29T05:02:45.702Z,11.99
2023-01-29T05:08:04.439Z,12
2023-01-29T05:13:23.312Z,12
2023-01-29T05:18:42.759Z,11.99
2023-01-29T05:24:02.244Z,11.99
2023-01-29T05:29:21.831Z,12
2023-01-29T05:34:41.002Z,12
2023-01-29T05:39:59.874Z,12
2023-01-29T05:45:19.117Z,11.99
2023-01-29T05:50:37.482Z,11.99
2023-01-29T05:55:56.564Z,12
2023-01-29T06:01:15.976Z,11.99
2023-01-29T06:06:35.545Z,11.99
2023-01-29T06:11:54.702Z,11.98
2023-01-29T06:17:14.243Z,11.99
2023-01-29T06:23:48.404Z,11.99
2023-01-29T06:27:54.199Z,11.98
2023-01-29T06:33:13.784Z,11.99
2023-01-29T06:38:33.264Z,11.99
2023-01-29T06:43:53.001Z,11.98
2023-01-29T06:49:12.224Z,11.99
2023-01-29T06:54:31.743Z,11.98
2023-01-29T06:59:50.941Z,11.98
2023-01-29T07:05:10.205Z,11.99
2023-01-29T07:10:29.830Z,11.98
2023-01-29T07:15:49.352Z,11.99
2023-01-29T07:21:08.315Z,11.99
2023-01-29T07:26:27.720Z,11.99
2023-01-29T07:31:47.195Z,12
2023-01-29T07:37:06.795Z,12.01
2023-01-29T07:42:26.537Z,12.01
2023-01-29T07:47:45.878Z,12.02
2023-01-29T07:53:05.464Z,12.04
2023-01-29T07:58:25.209Z,12.04
2023-01-29T08:03:44.214Z,12.05
2023-01-29T08:09:03.961Z,12.08
2023-01-29T08:14:22.213Z,12.12
2023-01-29T08:19:41.063Z,12.15
2023-01-29T08:25:06.209Z,12.19
2023-01-29T08:30:19.784Z,12.22
2023-01-29T08:35:39.347Z,12.26
2023-01-29T08:40:58.274Z,12.32
2023-01-29T08:46:17.872Z,12.4
2023-01-29T08:51:37.575Z,12.5
2023-01-29T08:56:57.003Z,12.5
2023-01-29T09:07:36.189Z,12.59
2023-01-29T09:12:55.072Z,12.68
2023-01-29T09:18:14.607Z,12.77
2023-01-29T09:23:33.810Z,12.76
2023-01-29T09:28:53.515Z,13.17
2023-01-29T09:34:12.843Z,13.22
2023-01-29T09:39:32.443Z,13.18
2023-01-29T09:39:58.574Z,13.15
2023-01-29T09:45:17.746Z,13.22
2023-01-29T09:50:37.105Z,13.08
2023-01-29T09:55:56.347Z,13.02
2023-01-29T10:06:35.285Z,12.91
2023-01-29T10:11:56.332Z,12.9
2023-01-29T10:22:33.427Z,12.82
2023-01-29T10:27:52.488Z,12.89
2023-01-29T10:33:12.282Z,12.88
2023-01-29T10:38:31.578Z,12.81
2023-01-29T10:43:50.976Z,12.84
2023-01-29T10:49:10.319Z,12.88
2023-01-29T10:54:29.684Z,12.87
2023-01-29T10:59:48.944Z,12.82
2023-01-29T11:05:09.447Z,12.8
2023-01-29T11:10:27.324Z,12.79
2023-01-29T11:15:46.364Z,12.84
2023-01-29T11:21:05.795Z,12.87
2023-01-29T11:26:25.431Z,12.92
2023-01-29T11:31:45.140Z,12.9
2023-01-29T11:37:04.461Z,12.83
2023-01-29T11:42:23.306Z,12.92
2023-01-29T11:47:42.480Z,12.88
2023-01-29T11:53:01.428Z,13.16
2023-01-29T11:58:21.397Z,13.13
2023-01-29T12:03:40.372Z,13.14
2023-01-29T12:08:59.856Z,13.1
2023-01-29T12:15:34.067Z,13.15
2023-01-29T12:19:38.990Z,13.05
2023-01-29T12:24:58.563Z,12.98
2023-01-29T12:30:17.727Z,12.93
2023-01-29T12:35:36.321Z,12.98
2023-01-29T12:42:10.468Z,13
2023-01-29T12:46:16.011Z,13.06
2023-01-29T12:51:35.564Z,13.11
2023-01-29T12:56:55.399Z,13.05
2023-01-29T13:02:14.283Z,13.2
2023-01-29T13:07:33.462Z,13.07
2023-01-29T13:12:53.019Z,13
2023-01-29T13:18:12.650Z,13.02
2023-01-29T13:23:31.828Z,12.96
2023-01-29T13:28:50.656Z,13
2023-01-29T13:34:10.319Z,12.9
2023-01-29T13:39:28.866Z,13.07
2023-01-29T13:44:48.281Z,13.07
2023-01-29T13:50:07.990Z,13.32
2023-01-29T13:55:27.564Z,13.32
2023-01-29T14:00:47.003Z,13.34
2023-01-29T14:07:21.197Z,13.25
2023-01-29T14:11:26.323Z,13.18
2023-01-29T14:16:46.015Z,13.18
2023-01-29T14:27:24.797Z,13.34
2023-01-29T14:32:43.295Z,13.35
2023-01-29T14:39:41.956Z,13.33
2023-01-29T14:43:23.864Z,13.06
2023-01-29T14:48:43.435Z,13.04
2023-01-29T14:54:02.337Z,13.06
2023-01-29T14:59:21.537Z,13.14
2023-01-29T15:10:20.823Z,12.99
2023-01-29T15:15:20.532Z,13.1
2023-01-29T15:20:40.162Z,13.16
2023-01-29T15:25:59.725Z,13.14
2023-01-29T15:31:19.006Z,13.08
2023-01-29T15:47:15.001Z,12.91
2023-01-29T15:52:33.778Z,12.84
2023-01-29T15:57:52.664Z,12.76
2023-01-29T16:03:11.996Z,12.72
2023-01-29T16:08:31.140Z,12.69
2023-01-29T16:13:50.345Z,12.67
2023-01-29T16:19:09.900Z,12.65
2023-01-29T16:24:28.986Z,12.64
2023-01-29T16:29:48.004Z,12.64
2023-01-29T16:35:06.855Z,12.63
2023-01-29T16:40:25.997Z,12.62
2023-01-29T16:45:45.799Z,12.62
2023-01-29T16:52:19.973Z,12.6
2023-01-29T16:56:25.652Z,12.6
2023-01-29T17:01:45.213Z,12.6
2023-01-29T17:07:04.081Z,12.59
2023-01-29T17:12:23.031Z,12.59
2023-01-29T17:17:42.424Z,12.58
2023-01-29T17:23:01.934Z,12.58
2023-01-29T17:28:21.729Z,12.58
2023-01-29T17:33:41.483Z,12.56
2023-01-29T17:39:01.303Z,12.57
2023-01-29T17:44:20.554Z,12.57
2023-01-29T17:49:39.884Z,12.56
2023-01-29T17:54:59.326Z,12.56
2023-01-29T18:00:18.724Z,12.56
2023-01-29T18:05:37.799Z,12.55
2023-01-29T18:10:56.842Z,12.55
2023-01-29T18:16:16.472Z,12.55
2023-01-29T18:21:36.040Z,12.55
2023-01-29T18:26:55.331Z,12.54
2023-01-29T18:32:15.077Z,12.54
2023-01-29T18:37:33.941Z,12.54
2023-01-29T18:42:53.283Z,12.53
2023-01-29T18:53:31.234Z,12.53
2023-01-29T18:58:52.139Z,12.53
2023-01-29T19:04:09.468Z,12.52
2023-01-29T19:09:28.425Z,12.52
2023-01-29T19:20:06.797Z,12.52
2023-01-29T19:25:25.925Z,12.52
2023-01-29T19:36:05.216Z,12.52
2023-01-29T19:41:24.814Z,12.51
2023-01-29T19:46:44.346Z,12.51
2023-01-29T19:52:03.659Z,12.51
2023-01-29T20:02:43.027Z,12.51
2023-01-29T20:08:02.710Z,12.5
2023-01-29T20:18:41.216Z,12.5
2023-01-29T20:24:00.140Z,12.5
2023-01-29T20:29:19.063Z,12.51
2023-01-29T20:34:38.813Z,12.5
2023-01-29T20:39:57.884Z,12.5
2023-01-29T20:45:16.754Z,12.5
2023-01-29T20:50:36.065Z,12.5
2023-01-29T20:55:55.605Z,12.5
2023-01-29T21:01:15.391Z,12.5
2023-01-29T21:06:34.276Z,12.49
2023-01-29T21:11:53.579Z,12.49
2023-01-29T21:17:13.054Z,12.48
2023-01-29T21:27:52.267Z,12.49
2023-01-29T21:33:12.064Z,12.48
2023-01-29T21:38:31.577Z,12.48
2023-01-29T21:43:51.062Z,12.48
2023-01-29T21:49:09.989Z,12.48
2023-01-29T21:54:29.821Z,12.49
2023-01-29T21:59:52.797Z,12.48
2023-01-29T22:05:17.425Z,12.48
2023-01-29T22:10:28.322Z,12.48
2023-01-29T22:15:47.152Z,12.47
2023-01-29T22:21:06.912Z,12.48
2023-01-29T22:26:24.810Z,12.47
2023-01-29T22:31:44.019Z,12.47
2023-01-29T22:37:03.407Z,12.47
2023-01-29T22:42:22.689Z,12.47
2023-01-29T22:47:41.726Z,12.47
2023-01-29T22:53:00.704Z,12.47
2023-01-29T22:58:20.174Z,12.47
2023-01-29T23:03:39.605Z,12.47
2023-01-29T23:08:59.337Z,12.46
2023-01-29T23:14:19.247Z,12.46
2023-01-29T23:19:38.220Z,12.46
2023-01-29T23:24:57.074Z,12.46
2023-01-29T23:30:17.036Z,12.46
2023-01-29T23:35:36.527Z,12.46
2023-01-29T23:46:15.294Z,12.46
2023-01-29T23:51:34.730Z,12.46
2023-01-29T23:58:08.853Z,12.46
